Los Antiguos, Argentina
Current Conditions -  °F | °C
As of 6:00 PM on Monday 22 Dec 2014 (Local Time) from SCAP Reporting Station
Clear Clear  
Wind Chill: 57°   Ceiling: Unl
Heat Index: 57°   Visibility: NA
Dew Point: 37°   Wind: 12mph
Humidity: 48%   Direction: 220°SW
Pressure: 30.33"   Gusts: NA
Location:  46.55°S, 71.62°W
Report Text: SCAP 222100Z AUTO 22010KT 160V270 //// // NSC 14/03 Q1027
Loading
Personal Weather Stations






























Interactive Weather Map New forecast layout! Learn more

10-Day Weather Forecast

Advertisements
Track Severe Weather on mobile